sensor_id;sensor_type;location;lat;lon;timestamp;temperature;humidity
22986;DHT22;11659;51.092;7.080;2022-12-07T00:00:29;4.80;99.90
22986;DHT22;11659;51.092;7.080;2022-12-07T00:02:55;5.30;99.90
22986;DHT22;11659;51.092;7.080;2022-12-07T00:05:21;5.30;99.90
22986;DHT22;11659;51.092;7.080;2022-12-07T00:07:49;5.30;99.90
22986;DHT22;11659;51.092;7.080;2022-12-07T00:10:15;5.30;99.90
22986;DHT22;11659;51.092;7.080;2022-12-07T00:12:41;5.30;99.90
22986;DHT22;11659;51.092;7.080;2022-12-07T00:15:08;5.30;99.90
22986;DHT22;11659;51.092;7.080;2022-12-07T00:17:35;5.30;99.90
22986;DHT22;11659;51.092;7.080;2022-12-07T00:20:01;5.30;99.90
22986;DHT22;11659;51.092;7.080;2022-12-07T00:22:27;5.30;99.90
22986;DHT22;11659;51.092;7.080;2022-12-07T00:24:53;5.30;99.90
22986;DHT22;11659;51.092;7.080;2022-12-07T00:27:19;5.30;99.90
22986;DHT22;11659;51.092;7.080;2022-12-07T00:29:45;5.30;99.90
22986;DHT22;11659;51.092;7.080;2022-12-07T00:32:11;5.30;99.90
22986;DHT22;11659;51.092;7.080;2022-12-07T00:34:38;5.30;99.90
22986;DHT22;11659;51.092;7.080;2022-12-07T00:37:04;5.30;99.90
22986;DHT22;11659;51.092;7.080;2022-12-07T00:39:30;5.30;99.90
22986;DHT22;11659;51.092;7.080;2022-12-07T00:41:56;5.30;99.90
22986;DHT22;11659;51.092;7.080;2022-12-07T00:44:22;5.30;99.90
22986;DHT22;11659;51.092;7.080;2022-12-07T00:46:48;5.30;99.90
22986;DHT22;11659;51.092;7.080;2022-12-07T00:49:14;5.30;99.90
22986;DHT22;11659;51.092;7.080;2022-12-07T00:51:41;5.20;99.90
22986;DHT22;11659;51.092;7.080;2022-12-07T00:54:07;5.20;99.90
22986;DHT22;11659;51.092;7.080;2022-12-07T00:56:33;5.30;99.90
22986;DHT22;11659;51.092;7.080;2022-12-07T00:59:01;5.30;99.90
22986;DHT22;11659;51.092;7.080;2022-12-07T01:01:29;5.30;99.90
22986;DHT22;11659;51.092;7.080;2022-12-07T01:03:55;5.30;99.90
22986;DHT22;11659;51.092;7.080;2022-12-07T01:06:23;5.30;99.90
22986;DHT22;11659;51.092;7.080;2022-12-07T01:08:52;5.30;99.90
22986;DHT22;11659;51.092;7.080;2022-12-07T01:11:20;5.30;99.90
22986;DHT22;11659;51.092;7.080;2022-12-07T01:13:48;5.30;99.90
22986;DHT22;11659;51.092;7.080;2022-12-07T01:16:16;5.30;99.90
22986;DHT22;11659;51.092;7.080;2022-12-07T01:18:45;5.30;99.90
22986;DHT22;11659;51.092;7.080;2022-12-07T01:21:14;5.20;99.90
22986;DHT22;11659;51.092;7.080;2022-12-07T01:23:41;5.20;99.90
22986;DHT22;11659;51.092;7.080;2022-12-07T01:26:11;5.30;99.90
22986;DHT22;11659;51.092;7.080;2022-12-07T01:28:38;5.30;99.90
22986;DHT22;11659;51.092;7.080;2022-12-07T01:31:06;5.30;99.90
22986;DHT22;11659;51.092;7.080;2022-12-07T01:33:34;5.30;99.90
22986;DHT22;11659;51.092;7.080;2022-12-07T01:36:01;5.30;99.90
22986;DHT22;11659;51.092;7.080;2022-12-07T01:38:28;5.30;99.90
22986;DHT22;11659;51.092;7.080;2022-12-07T01:40:57;5.30;99.90
22986;DHT22;11659;51.092;7.080;2022-12-07T01:43:27;5.30;99.90
22986;DHT22;11659;51.092;7.080;2022-12-07T01:45:53;5.30;99.90
22986;DHT22;11659;51.092;7.080;2022-12-07T01:48:23;5.30;99.90
22986;DHT22;11659;51.092;7.080;2022-12-07T01:50:51;5.30;99.90
22986;DHT22;11659;51.092;7.080;2022-12-07T01:53:19;5.30;99.90
22986;DHT22;11659;51.092;7.080;2022-12-07T01:55:48;5.30;99.90
22986;DHT22;11659;51.092;7.080;2022-12-07T01:58:16;5.30;99.90
22986;DHT22;11659;51.092;7.080;2022-12-07T02:00:44;5.30;99.90
22986;DHT22;11659;51.092;7.080;2022-12-07T02:03:13;5.30;99.90
22986;DHT22;11659;51.092;7.080;2022-12-07T02:05:41;5.30;99.90
22986;DHT22;11659;51.092;7.080;2022-12-07T02:08:09;5.20;99.90
22986;DHT22;11659;51.092;7.080;2022-12-07T02:10:36;5.20;99.90
22986;DHT22;11659;51.092;7.080;2022-12-07T02:13:05;5.20;99.90
22986;DHT22;11659;51.092;7.080;2022-12-07T02:15:41;5.20;99.90
22986;DHT22;11659;51.092;7.080;2022-12-07T02:18:17;5.20;99.90
22986;DHT22;11659;51.092;7.080;2022-12-07T02:20:53;5.20;99.90
22986;DHT22;11659;51.092;7.080;2022-12-07T02:23:41;5.20;99.90
22986;DHT22;11659;51.092;7.080;2022-12-07T02:26:39;5.20;99.90
22986;DHT22;11659;51.092;7.080;2022-12-07T02:29:14;5.20;99.90
22986;DHT22;11659;51.092;7.080;2022-12-07T02:31:46;5.20;99.90
22986;DHT22;11659;51.092;7.080;2022-12-07T02:34:20;5.20;99.90
22986;DHT22;11659;51.092;7.080;2022-12-07T02:36:53;5.20;99.90
22986;DHT22;11659;51.092;7.080;2022-12-07T02:39:27;5.20;99.90
22986;DHT22;11659;51.092;7.080;2022-12-07T02:41:58;5.20;99.90
22986;DHT22;11659;51.092;7.080;2022-12-07T02:44:27;5.20;99.90
22986;DHT22;11659;51.092;7.080;2022-12-07T02:46:55;5.20;99.90
22986;DHT22;11659;51.092;7.080;2022-12-07T02:49:24;5.20;99.90
22986;DHT22;11659;51.092;7.080;2022-12-07T02:51:52;5.20;99.90
22986;DHT22;11659;51.092;7.080;2022-12-07T02:54:19;5.20;99.90
22986;DHT22;11659;51.092;7.080;2022-12-07T02:56:50;5.20;99.90
22986;DHT22;11659;51.092;7.080;2022-12-07T02:59:25;5.20;99.90
22986;DHT22;11659;51.092;7.080;2022-12-07T03:02:01;5.20;99.90
22986;DHT22;11659;51.092;7.080;2022-12-07T03:04:39;5.20;99.90
22986;DHT22;11659;51.092;7.080;2022-12-07T03:07:14;5.30;99.90
22986;DHT22;11659;51.092;7.080;2022-12-07T03:09:50;5.30;99.90
22986;DHT22;11659;51.092;7.080;2022-12-07T03:12:20;5.30;99.90
22986;DHT22;11659;51.092;7.080;2022-12-07T03:15:00;5.30;99.90
22986;DHT22;11659;51.092;7.080;2022-12-07T03:17:31;5.30;99.90
22986;DHT22;11659;51.092;7.080;2022-12-07T03:20:01;5.30;99.90
22986;DHT22;11659;51.092;7.080;2022-12-07T03:22:30;5.40;99.90
22986;DHT22;11659;51.092;7.080;2022-12-07T03:25:00;5.40;99.90
22986;DHT22;11659;51.092;7.080;2022-12-07T03:27:30;5.40;99.90
22986;DHT22;11659;51.092;7.080;2022-12-07T03:30:00;5.40;99.90
22986;DHT22;11659;51.092;7.080;2022-12-07T03:32:34;5.40;99.90
22986;DHT22;11659;51.092;7.080;2022-12-07T03:35:05;5.30;99.90
22986;DHT22;11659;51.092;7.080;2022-12-07T03:37:34;5.30;99.90
22986;DHT22;11659;51.092;7.080;2022-12-07T03:40:07;5.40;99.90
22986;DHT22;11659;51.092;7.080;2022-12-07T03:42:34;5.40;99.90
22986;DHT22;11659;51.092;7.080;2022-12-07T03:45:01;5.40;99.90
22986;DHT22;11659;51.092;7.080;2022-12-07T03:47:32;5.40;99.90
22986;DHT22;11659;51.092;7.080;2022-12-07T03:50:04;5.40;99.90
22986;DHT22;11659;51.092;7.080;2022-12-07T03:52:36;5.30;99.90
22986;DHT22;11659;51.092;7.080;2022-12-07T03:55:08;5.30;99.90
22986;DHT22;11659;51.092;7.080;2022-12-07T03:57:36;5.30;99.90
22986;DHT22;11659;51.092;7.080;2022-12-07T04:00:06;5.30;99.90
22986;DHT22;11659;51.092;7.080;2022-12-07T04:02:39;5.30;99.90
22986;DHT22;11659;51.092;7.080;2022-12-07T04:05:07;5.30;99.90
22986;DHT22;11659;51.092;7.080;2022-12-07T04:07:33;5.30;99.90
22986;DHT22;11659;51.092;7.080;2022-12-07T04:09:59;5.30;99.90
22986;DHT22;11659;51.092;7.080;2022-12-07T04:12:25;5.30;99.90
22986;DHT22;11659;51.092;7.080;2022-12-07T04:14:51;5.30;99.90
22986;DHT22;11659;51.092;7.080;2022-12-07T04:17:17;5.40;99.90
22986;DHT22;11659;51.092;7.080;2022-12-07T04:19:44;5.40;99.90
22986;DHT22;11659;51.092;7.080;2022-12-07T04:22:10;5.40;99.90
22986;DHT22;11659;51.092;7.080;2022-12-07T04:24:36;5.40;99.90
22986;DHT22;11659;51.092;7.080;2022-12-07T04:27:02;5.40;99.90
22986;DHT22;11659;51.092;7.080;2022-12-07T04:29:28;5.50;99.90
22986;DHT22;11659;51.092;7.080;2022-12-07T04:31:54;5.50;99.90
22986;DHT22;11659;51.092;7.080;2022-12-07T04:34:20;5.50;99.90
22986;DHT22;11659;51.092;7.080;2022-12-07T04:36:48;5.50;99.90
22986;DHT22;11659;51.092;7.080;2022-12-07T04:39:21;5.40;99.90
22986;DHT22;11659;51.092;7.080;2022-12-07T04:41:47;5.40;99.90
22986;DHT22;11659;51.092;7.080;2022-12-07T04:44:14;5.40;99.90
22986;DHT22;11659;51.092;7.080;2022-12-07T04:46:41;5.50;99.90
22986;DHT22;11659;51.092;7.080;2022-12-07T04:49:07;5.50;99.90
22986;DHT22;11659;51.092;7.080;2022-12-07T04:51:33;5.50;99.90
22986;DHT22;11659;51.092;7.080;2022-12-07T04:54:01;5.50;99.90
22986;DHT22;11659;51.092;7.080;2022-12-07T04:56:27;5.50;99.90
22986;DHT22;11659;51.092;7.080;2022-12-07T04:58:54;5.50;99.90
22986;DHT22;11659;51.092;7.080;2022-12-07T05:01:21;5.50;99.90
22986;DHT22;11659;51.092;7.080;2022-12-07T05:03:47;5.50;99.90
22986;DHT22;11659;51.092;7.080;2022-12-07T05:06:13;5.50;99.90
22986;DHT22;11659;51.092;7.080;2022-12-07T05:08:39;5.50;99.90
22986;DHT22;11659;51.092;7.080;2022-12-07T05:11:08;5.50;99.90
22986;DHT22;11659;51.092;7.080;2022-12-07T05:13:35;5.50;99.90
22986;DHT22;11659;51.092;7.080;2022-12-07T05:16:02;5.50;99.90
22986;DHT22;11659;51.092;7.080;2022-12-07T05:18:28;5.50;99.90
22986;DHT22;11659;51.092;7.080;2022-12-07T05:20:54;5.50;99.90
22986;DHT22;11659;51.092;7.080;2022-12-07T05:23:20;5.50;99.90
22986;DHT22;11659;51.092;7.080;2022-12-07T05:25:46;5.50;99.90
22986;DHT22;11659;51.092;7.080;2022-12-07T05:28:14;5.50;99.90
22986;DHT22;11659;51.092;7.080;2022-12-07T05:30:40;5.50;99.90
22986;DHT22;11659;51.092;7.080;2022-12-07T05:33:06;5.50;99.90
22986;DHT22;11659;51.092;7.080;2022-12-07T05:35:32;5.40;99.90
22986;DHT22;11659;51.092;7.080;2022-12-07T05:37:58;5.50;99.90
22986;DHT22;11659;51.092;7.080;2022-12-07T05:40:24;5.50;99.90
22986;DHT22;11659;51.092;7.080;2022-12-07T05:42:50;5.50;99.90
22986;DHT22;11659;51.092;7.080;2022-12-07T05:45:17;5.50;99.90
22986;DHT22;11659;51.092;7.080;2022-12-07T05:47:43;5.50;99.90
22986;DHT22;11659;51.092;7.080;2022-12-07T05:50:09;5.50;99.90
22986;DHT22;11659;51.092;7.080;2022-12-07T05:52:35;5.50;99.90
22986;DHT22;11659;51.092;7.080;2022-12-07T05:55:01;5.40;99.90
22986;DHT22;11659;51.092;7.080;2022-12-07T05:57:27;5.40;99.90
22986;DHT22;11659;51.092;7.080;2022-12-07T05:59:53;5.40;99.90
22986;DHT22;11659;51.092;7.080;2022-12-07T06:02:21;5.40;99.90
22986;DHT22;11659;51.092;7.080;2022-12-07T06:04:46;5.40;99.90
22986;DHT22;11659;51.092;7.080;2022-12-07T06:07:14;5.40;99.90
22986;DHT22;11659;51.092;7.080;2022-12-07T06:09:40;5.40;99.90
22986;DHT22;11659;51.092;7.080;2022-12-07T06:12:15;5.40;99.90
22986;DHT22;11659;51.092;7.080;2022-12-07T06:14:59;5.30;99.90
22986;DHT22;11659;51.092;7.080;2022-12-07T06:17:26;5.30;99.90
22986;DHT22;11659;51.092;7.080;2022-12-07T06:19:52;5.30;99.90
22986;DHT22;11659;51.092;7.080;2022-12-07T06:22:18;5.30;99.90
22986;DHT22;11659;51.092;7.080;2022-12-07T06:24:44;5.30;99.90
22986;DHT22;11659;51.092;7.080;2022-12-07T06:27:10;5.30;99.90
22986;DHT22;11659;51.092;7.080;2022-12-07T06:29:36;5.30;99.90
22986;DHT22;11659;51.092;7.080;2022-12-07T06:32:03;5.30;99.90
22986;DHT22;11659;51.092;7.080;2022-12-07T06:34:33;5.30;99.90
22986;DHT22;11659;51.092;7.080;2022-12-07T06:37:00;5.30;99.90
22986;DHT22;11659;51.092;7.080;2022-12-07T06:39:27;5.30;99.90
22986;DHT22;11659;51.092;7.080;2022-12-07T06:41:53;5.20;99.90
22986;DHT22;11659;51.092;7.080;2022-12-07T06:44:20;5.30;99.90
22986;DHT22;11659;51.092;7.080;2022-12-07T06:46:47;5.30;99.90
22986;DHT22;11659;51.092;7.080;2022-12-07T06:49:13;5.20;99.90
22986;DHT22;11659;51.092;7.080;2022-12-07T06:51:41;5.20;99.90
22986;DHT22;11659;51.092;7.080;2022-12-07T06:54:07;5.20;99.90
22986;DHT22;11659;51.092;7.080;2022-12-07T06:56:34;5.20;99.90
22986;DHT22;11659;51.092;7.080;2022-12-07T06:58:59;5.20;99.90
22986;DHT22;11659;51.092;7.080;2022-12-07T07:01:28;5.20;99.90
22986;DHT22;11659;51.092;7.080;2022-12-07T07:03:54;5.20;99.90
22986;DHT22;11659;51.092;7.080;2022-12-07T07:06:20;5.20;99.90
22986;DHT22;11659;51.092;7.080;2022-12-07T07:08:47;5.20;99.90
22986;DHT22;11659;51.092;7.080;2022-12-07T07:11:13;5.20;99.90
22986;DHT22;11659;51.092;7.080;2022-12-07T07:13:39;5.20;99.90
22986;DHT22;11659;51.092;7.080;2022-12-07T07:16:06;5.20;99.90
22986;DHT22;11659;51.092;7.080;2022-12-07T07:18:32;5.10;99.90
22986;DHT22;11659;51.092;7.080;2022-12-07T07:20:58;5.10;99.90
22986;DHT22;11659;51.092;7.080;2022-12-07T07:23:24;5.10;99.90
22986;DHT22;11659;51.092;7.080;2022-12-07T07:25:51;5.20;99.90
22986;DHT22;11659;51.092;7.080;2022-12-07T07:28:18;5.20;99.90
22986;DHT22;11659;51.092;7.080;2022-12-07T07:30:44;5.10;99.90
22986;DHT22;11659;51.092;7.080;2022-12-07T07:33:11;5.10;99.90
22986;DHT22;11659;51.092;7.080;2022-12-07T07:35:37;5.10;99.90
22986;DHT22;11659;51.092;7.080;2022-12-07T07:38:05;5.10;99.90
22986;DHT22;11659;51.092;7.080;2022-12-07T07:40:31;5.00;99.90
22986;DHT22;11659;51.092;7.080;2022-12-07T07:42:58;5.10;99.90
22986;DHT22;11659;51.092;7.080;2022-12-07T07:45:25;5.10;99.90
22986;DHT22;11659;51.092;7.080;2022-12-07T07:47:51;5.10;99.90
22986;DHT22;11659;51.092;7.080;2022-12-07T07:50:18;5.10;99.90
22986;DHT22;11659;51.092;7.080;2022-12-07T07:52:43;5.10;99.90
22986;DHT22;11659;51.092;7.080;2022-12-07T07:55:30;5.00;99.90
22986;DHT22;11659;51.092;7.080;2022-12-07T07:57:56;5.00;99.90
22986;DHT22;11659;51.092;7.080;2022-12-07T08:00:23;5.00;99.90
22986;DHT22;11659;51.092;7.080;2022-12-07T08:02:49;5.00;99.90
22986;DHT22;11659;51.092;7.080;2022-12-07T08:05:15;5.00;99.90
22986;DHT22;11659;51.092;7.080;2022-12-07T08:07:41;5.00;99.90
22986;DHT22;11659;51.092;7.080;2022-12-07T08:10:11;5.00;99.90
22986;DHT22;11659;51.092;7.080;2022-12-07T08:12:38;5.00;99.90
22986;DHT22;11659;51.092;7.080;2022-12-07T08:15:27;5.00;99.90
22986;DHT22;11659;51.092;7.080;2022-12-07T08:17:53;5.00;99.90
22986;DHT22;11659;51.092;7.080;2022-12-07T08:20:19;5.00;99.90
22986;DHT22;11659;51.092;7.080;2022-12-07T08:22:45;5.00;99.90
22986;DHT22;11659;51.092;7.080;2022-12-07T08:25:11;5.00;99.90
22986;DHT22;11659;51.092;7.080;2022-12-07T08:27:37;5.10;99.90
22986;DHT22;11659;51.092;7.080;2022-12-07T08:30:04;5.10;99.90
22986;DHT22;11659;51.092;7.080;2022-12-07T08:32:31;5.10;99.90
22986;DHT22;11659;51.092;7.080;2022-12-07T08:34:57;5.10;99.90
22986;DHT22;11659;51.092;7.080;2022-12-07T08:37:23;5.10;99.90
22986;DHT22;11659;51.092;7.080;2022-12-07T08:39:49;5.20;99.90
22986;DHT22;11659;51.092;7.080;2022-12-07T08:42:15;5.20;99.90
22986;DHT22;11659;51.092;7.080;2022-12-07T08:44:40;5.20;99.90
22986;DHT22;11659;51.092;7.080;2022-12-07T08:47:07;5.20;99.90
22986;DHT22;11659;51.092;7.080;2022-12-07T08:49:40;5.20;99.90
22986;DHT22;11659;51.092;7.080;2022-12-07T08:52:07;5.20;99.90
22986;DHT22;11659;51.092;7.080;2022-12-07T08:54:34;5.20;99.90
22986;DHT22;11659;51.092;7.080;2022-12-07T08:57:02;5.30;99.90
22986;DHT22;11659;51.092;7.080;2022-12-07T08:59:28;5.30;99.90
22986;DHT22;11659;51.092;7.080;2022-12-07T09:01:54;5.30;99.90
22986;DHT22;11659;51.092;7.080;2022-12-07T09:04:20;5.20;99.90
22986;DHT22;11659;51.092;7.080;2022-12-07T09:06:48;5.30;99.90
22986;DHT22;11659;51.092;7.080;2022-12-07T09:09:14;5.30;99.90
22986;DHT22;11659;51.092;7.080;2022-12-07T09:11:40;5.30;99.90
22986;DHT22;11659;51.092;7.080;2022-12-07T09:14:06;5.30;99.90
22986;DHT22;11659;51.092;7.080;2022-12-07T09:16:32;5.30;99.90
22986;DHT22;11659;51.092;7.080;2022-12-07T09:18:58;5.30;99.90
22986;DHT22;11659;51.092;7.080;2022-12-07T09:21:24;5.30;99.90
22986;DHT22;11659;51.092;7.080;2022-12-07T09:23:51;5.30;99.90
22986;DHT22;11659;51.092;7.080;2022-12-07T09:26:17;5.30;99.90
22986;DHT22;11659;51.092;7.080;2022-12-07T09:28:43;5.30;99.90
22986;DHT22;11659;51.092;7.080;2022-12-07T09:31:09;5.40;99.90
22986;DHT22;11659;51.092;7.080;2022-12-07T09:33:35;5.40;99.90
22986;DHT22;11659;51.092;7.080;2022-12-07T09:36:01;5.40;99.90
22986;DHT22;11659;51.092;7.080;2022-12-07T09:38:28;5.40;99.90
22986;DHT22;11659;51.092;7.080;2022-12-07T09:40:56;5.40;99.90
22986;DHT22;11659;51.092;7.080;2022-12-07T09:43:24;5.50;99.90
22986;DHT22;11659;51.092;7.080;2022-12-07T09:45:53;5.50;99.90
22986;DHT22;11659;51.092;7.080;2022-12-07T09:48:22;5.50;99.90
22986;DHT22;11659;51.092;7.080;2022-12-07T09:50:50;5.60;99.90
22986;DHT22;11659;51.092;7.080;2022-12-07T09:53:22;5.60;99.90
22986;DHT22;11659;51.092;7.080;2022-12-07T09:55:49;5.60;99.90
22986;DHT22;11659;51.092;7.080;2022-12-07T09:58:22;5.60;99.90
22986;DHT22;11659;51.092;7.080;2022-12-07T10:00:49;5.60;99.90
22986;DHT22;11659;51.092;7.080;2022-12-07T10:03:16;5.60;99.90
22986;DHT22;11659;51.092;7.080;2022-12-07T10:05:45;5.60;99.90
22986;DHT22;11659;51.092;7.080;2022-12-07T10:08:13;5.60;99.90
22986;DHT22;11659;51.092;7.080;2022-12-07T10:10:41;5.60;99.90
22986;DHT22;11659;51.092;7.080;2022-12-07T10:13:09;5.70;99.90
22986;DHT22;11659;51.092;7.080;2022-12-07T10:15:46;5.70;99.90
22986;DHT22;11659;51.092;7.080;2022-12-07T10:18:26;5.70;99.90
22986;DHT22;11659;51.092;7.080;2022-12-07T10:21:01;5.70;99.90
22986;DHT22;11659;51.092;7.080;2022-12-07T10:23:27;5.70;99.90
22986;DHT22;11659;51.092;7.080;2022-12-07T10:25:54;5.70;99.90
22986;DHT22;11659;51.092;7.080;2022-12-07T10:28:21;5.70;99.90
22986;DHT22;11659;51.092;7.080;2022-12-07T10:30:55;5.70;99.90
22986;DHT22;11659;51.092;7.080;2022-12-07T10:33:48;5.70;99.90
22986;DHT22;11659;51.092;7.080;2022-12-07T10:36:18;5.80;99.90
22986;DHT22;11659;51.092;7.080;2022-12-07T10:38:46;5.80;99.90
22986;DHT22;11659;51.092;7.080;2022-12-07T10:41:13;5.80;99.90
22986;DHT22;11659;51.092;7.080;2022-12-07T10:43:48;5.80;99.90
22986;DHT22;11659;51.092;7.080;2022-12-07T10:52:08;5.90;99.90
22986;DHT22;11659;51.092;7.080;2022-12-07T10:54:44;6.00;99.90
22986;DHT22;11659;51.092;7.080;2022-12-07T10:57:31;6.00;99.90
22986;DHT22;11659;51.092;7.080;2022-12-07T11:00:08;6.00;99.90
22986;DHT22;11659;51.092;7.080;2022-12-07T11:02:50;6.00;99.90
22986;DHT22;11659;51.092;7.080;2022-12-07T11:05:25;6.00;99.90
22986;DHT22;11659;51.092;7.080;2022-12-07T11:08:01;6.00;99.90
22986;DHT22;11659;51.092;7.080;2022-12-07T11:10:33;6.00;99.90
22986;DHT22;11659;51.092;7.080;2022-12-07T11:13:18;6.00;99.90
22986;DHT22;11659;51.092;7.080;2022-12-07T11:18:57;6.00;99.90
22986;DHT22;11659;51.092;7.080;2022-12-07T11:21:28;6.10;99.90
22986;DHT22;11659;51.092;7.080;2022-12-07T11:24:02;6.10;99.90
22986;DHT22;11659;51.092;7.080;2022-12-07T11:26:42;6.10;99.90
22986;DHT22;11659;51.092;7.080;2022-12-07T11:29:25;6.10;99.90
22986;DHT22;11659;51.092;7.080;2022-12-07T11:32:01;6.10;99.90
22986;DHT22;11659;51.092;7.080;2022-12-07T11:34:38;6.10;99.90
22986;DHT22;11659;51.092;7.080;2022-12-07T11:37:08;6.10;99.90
22986;DHT22;11659;51.092;7.080;2022-12-07T11:39:41;6.10;99.90
22986;DHT22;11659;51.092;7.080;2022-12-07T11:42:13;6.10;99.90
22986;DHT22;11659;51.092;7.080;2022-12-07T11:44:50;6.10;99.90
22986;DHT22;11659;51.092;7.080;2022-12-07T11:47:22;6.10;99.90
22986;DHT22;11659;51.092;7.080;2022-12-07T11:49:54;6.10;99.90
22986;DHT22;11659;51.092;7.080;2022-12-07T11:52:27;6.20;99.90
22986;DHT22;11659;51.092;7.080;2022-12-07T11:54:57;6.20;99.90
22986;DHT22;11659;51.092;7.080;2022-12-07T11:57:30;6.20;99.90
22986;DHT22;11659;51.092;7.080;2022-12-07T12:00:03;6.20;99.90
22986;DHT22;11659;51.092;7.080;2022-12-07T12:02:34;6.30;99.90
22986;DHT22;11659;51.092;7.080;2022-12-07T12:05:16;6.30;99.90
22986;DHT22;11659;51.092;7.080;2022-12-07T12:07:44;6.30;99.90
22986;DHT22;11659;51.092;7.080;2022-12-07T12:10:19;6.30;99.90
22986;DHT22;11659;51.092;7.080;2022-12-07T12:13:05;6.40;99.90
22986;DHT22;11659;51.092;7.080;2022-12-07T12:15:47;6.60;99.90
22986;DHT22;11659;51.092;7.080;2022-12-07T12:21:27;7.10;99.90
22986;DHT22;11659;51.092;7.080;2022-12-07T12:23:56;7.30;99.90
22986;DHT22;11659;51.092;7.080;2022-12-07T12:26:26;7.50;99.90
22986;DHT22;11659;51.092;7.080;2022-12-07T12:28:56;7.50;99.90
22986;DHT22;11659;51.092;7.080;2022-12-07T12:31:37;7.70;99.90
22986;DHT22;11659;51.092;7.080;2022-12-07T12:34:32;7.80;99.90
22986;DHT22;11659;51.092;7.080;2022-12-07T12:36:59;8.00;99.90
22986;DHT22;11659;51.092;7.080;2022-12-07T12:39:26;8.00;99.90
22986;DHT22;11659;51.092;7.080;2022-12-07T12:41:57;8.00;99.90
22986;DHT22;11659;51.092;7.080;2022-12-07T12:47:42;8.20;99.90
22986;DHT22;11659;51.092;7.080;2022-12-07T12:50:19;8.40;99.90
22986;DHT22;11659;51.092;7.080;2022-12-07T12:58:32;8.50;99.90
22986;DHT22;11659;51.092;7.080;2022-12-07T13:04:12;8.10;99.90
22986;DHT22;11659;51.092;7.080;2022-12-07T13:06:41;7.80;99.90
22986;DHT22;11659;51.092;7.080;2022-12-07T13:09:19;7.70;99.90
22986;DHT22;11659;51.092;7.080;2022-12-07T13:11:47;7.50;99.90
22986;DHT22;11659;51.092;7.080;2022-12-07T13:14:43;7.40;99.90
22986;DHT22;11659;51.092;7.080;2022-12-07T13:17:10;7.30;99.90
22986;DHT22;11659;51.092;7.080;2022-12-07T13:19:58;7.20;99.90
22986;DHT22;11659;51.092;7.080;2022-12-07T13:22:51;7.10;99.90
22986;DHT22;11659;51.092;7.080;2022-12-07T13:25:29;7.10;99.90
22986;DHT22;11659;51.092;7.080;2022-12-07T13:28:00;7.00;99.90
22986;DHT22;11659;51.092;7.080;2022-12-07T13:30:27;6.50;99.90
22986;DHT22;11659;51.092;7.080;2022-12-07T13:32:55;6.90;99.90
22986;DHT22;11659;51.092;7.080;2022-12-07T13:35:29;6.80;99.90
22986;DHT22;11659;51.092;7.080;2022-12-07T13:37:56;6.80;99.90
22986;DHT22;11659;51.092;7.080;2022-12-07T13:40:23;6.80;99.90
22986;DHT22;11659;51.092;7.080;2022-12-07T13:42:57;6.80;99.90
22986;DHT22;11659;51.092;7.080;2022-12-07T13:45:25;6.80;99.90
22986;DHT22;11659;51.092;7.080;2022-12-07T13:48:15;6.80;99.90
22986;DHT22;11659;51.092;7.080;2022-12-07T13:50:41;6.80;99.90
22986;DHT22;11659;51.092;7.080;2022-12-07T13:53:12;6.70;99.90
22986;DHT22;11659;51.092;7.080;2022-12-07T13:55:44;6.70;99.90
22986;DHT22;11659;51.092;7.080;2022-12-07T13:58:10;6.70;99.90
22986;DHT22;11659;51.092;7.080;2022-12-07T14:00:36;6.70;99.90
22986;DHT22;11659;51.092;7.080;2022-12-07T14:03:04;6.60;99.90
22986;DHT22;11659;51.092;7.080;2022-12-07T14:05:45;6.60;99.90
22986;DHT22;11659;51.092;7.080;2022-12-07T14:08:22;6.60;99.90
22986;DHT22;11659;51.092;7.080;2022-12-07T14:10:55;6.60;99.90
22986;DHT22;11659;51.092;7.080;2022-12-07T14:13:28;6.60;99.90
22986;DHT22;11659;51.092;7.080;2022-12-07T14:15:55;6.60;99.90
22986;DHT22;11659;51.092;7.080;2022-12-07T14:18:27;6.60;99.90
22986;DHT22;11659;51.092;7.080;2022-12-07T14:21:03;6.60;99.90
22986;DHT22;11659;51.092;7.080;2022-12-07T14:23:29;6.50;99.90
22986;DHT22;11659;51.092;7.080;2022-12-07T14:26:06;6.50;99.90
22986;DHT22;11659;51.092;7.080;2022-12-07T14:28:43;6.50;99.90
22986;DHT22;11659;51.092;7.080;2022-12-07T14:31:11;6.50;99.90
22986;DHT22;11659;51.092;7.080;2022-12-07T14:33:38;6.50;99.90
22986;DHT22;11659;51.092;7.080;2022-12-07T14:36:05;6.50;99.90
22986;DHT22;11659;51.092;7.080;2022-12-07T14:38:31;6.50;99.90
22986;DHT22;11659;51.092;7.080;2022-12-07T14:40:57;6.50;99.90
22986;DHT22;11659;51.092;7.080;2022-12-07T14:43:44;6.50;99.90
22986;DHT22;11659;51.092;7.080;2022-12-07T14:46:10;6.50;99.90
22986;DHT22;11659;51.092;7.080;2022-12-07T14:48:36;6.50;99.90
22986;DHT22;11659;51.092;7.080;2022-12-07T14:51:02;6.50;99.90
22986;DHT22;11659;51.092;7.080;2022-12-07T14:53:33;6.40;99.90
22986;DHT22;11659;51.092;7.080;2022-12-07T14:56:00;6.40;99.90
22986;DHT22;11659;51.092;7.080;2022-12-07T14:58:26;6.40;99.90
22986;DHT22;11659;51.092;7.080;2022-12-07T15:00:54;6.40;99.90
22986;DHT22;11659;51.092;7.080;2022-12-07T15:03:20;6.40;99.90
22986;DHT22;11659;51.092;7.080;2022-12-07T15:05:46;6.40;99.90
22986;DHT22;11659;51.092;7.080;2022-12-07T15:08:12;6.30;99.90
22986;DHT22;11659;51.092;7.080;2022-12-07T15:10:39;6.30;99.90
22986;DHT22;11659;51.092;7.080;2022-12-07T15:13:06;6.20;99.90
22986;DHT22;11659;51.092;7.080;2022-12-07T15:15:53;6.10;99.90
22986;DHT22;11659;51.092;7.080;2022-12-07T15:18:21;6.10;99.90
22986;DHT22;11659;51.092;7.080;2022-12-07T15:20:47;6.00;99.90
22986;DHT22;11659;51.092;7.080;2022-12-07T15:23:13;6.00;99.90
22986;DHT22;11659;51.092;7.080;2022-12-07T15:25:40;6.00;99.90
22986;DHT22;11659;51.092;7.080;2022-12-07T15:28:06;5.90;99.90
22986;DHT22;11659;51.092;7.080;2022-12-07T15:30:32;5.90;99.90
22986;DHT22;11659;51.092;7.080;2022-12-07T15:32:59;5.80;99.90
22986;DHT22;11659;51.092;7.080;2022-12-07T15:35:28;5.80;99.90
22986;DHT22;11659;51.092;7.080;2022-12-07T15:37:54;5.80;99.90
22986;DHT22;11659;51.092;7.080;2022-12-07T15:40:20;5.80;99.90
22986;DHT22;11659;51.092;7.080;2022-12-07T15:42:46;5.70;99.90
22986;DHT22;11659;51.092;7.080;2022-12-07T15:45:12;5.70;99.90
22986;DHT22;11659;51.092;7.080;2022-12-07T15:47:41;5.70;99.90
22986;DHT22;11659;51.092;7.080;2022-12-07T15:50:10;5.60;99.90
22986;DHT22;11659;51.092;7.080;2022-12-07T15:52:36;5.60;99.90
22986;DHT22;11659;51.092;7.080;2022-12-07T15:55:03;5.60;99.90
22986;DHT22;11659;51.092;7.080;2022-12-07T15:57:30;5.60;99.90
22986;DHT22;11659;51.092;7.080;2022-12-07T15:59:56;5.60;99.90
22986;DHT22;11659;51.092;7.080;2022-12-07T16:02:22;5.60;99.90
22986;DHT22;11659;51.092;7.080;2022-12-07T16:04:49;5.60;99.90
22986;DHT22;11659;51.092;7.080;2022-12-07T16:07:17;5.60;99.90
22986;DHT22;11659;51.092;7.080;2022-12-07T16:09:44;5.70;99.90
22986;DHT22;11659;51.092;7.080;2022-12-07T16:12:11;5.70;99.90
22986;DHT22;11659;51.092;7.080;2022-12-07T16:14:37;5.70;99.90
22986;DHT22;11659;51.092;7.080;2022-12-07T16:17:04;5.70;99.90
22986;DHT22;11659;51.092;7.080;2022-12-07T16:19:30;5.60;99.90
22986;DHT22;11659;51.092;7.080;2022-12-07T16:21:56;5.60;99.90